Time;durP1;ratioP1;P1;durP2;ratioP2;P2;SDS_P1;SDS_P2;PMS_P1;PMS_P2;Temp;Humidity;BMP_temperature;BMP_pressure;BME280_temperature;BME280_humidity;BME280_pressure;Samples;Min_cycle;Max_cycle;Signal;HPM_P1;HPM_P2
2023/03/26 00:01:04;;;;;;;28.90;9.13;;;;;;;;;;5078909;28;20478;-60
2023/03/26 00:03:32;;;;;;;29.00;7.50;;;9.10;99.90;;;;;;5072461;28;20837;-60
2023/03/26 00:06:03;;;;;;;34.77;9.70;;;;;;;;;;5069353;28;20493;-60
2023/03/26 00:08:30;;;;;;;30.57;7.77;;;;;;;;;;5064819;28;20469;-60
2023/03/26 00:10:57;;;;;;;49.00;11.13;;;;;;;;;;5066183;28;20919;-60
2023/03/26 00:13:24;;;;;;;40.40;9.03;;;;;;;;;;5078589;28;21075;-61
2023/03/26 00:15:51;;;;;;;46.40;10.17;;;9.00;99.90;;;;;;5080515;28;20481;-60
2023/03/26 00:18:20;;;;;;;54.43;11.50;;;;;;;;;;5051005;28;20502;-60
2023/03/26 00:20:47;;;;;;;70.00;12.60;;;;;;;;;;5062072;28;20616;-60
2023/03/26 00:23:14;;;;;;;42.10;9.53;;;;;;;;;;5077297;28;20491;-60
2023/03/26 00:25:42;;;;;;;41.80;7.70;;;;;;;;;;5063071;28;20551;-60
2023/03/26 00:28:09;;;;;;;62.60;10.73;;;;;;;;;;5070187;28;20755;-60
2023/03/26 00:30:40;;;;;;;40.37;7.43;;;;;;;;;;5068159;28;20474;-60
2023/03/26 00:33:07;;;;;;;53.80;11.07;;;8.80;99.90;;;;;;5072785;28;20817;-60
2023/03/26 00:35:37;;;;;;;39.67;8.13;;;8.80;99.90;;;;;;5069218;28;20929;-60
2023/03/26 00:38:04;;;;;;;45.37;9.40;;;9.20;99.90;;;;;;5067920;28;20474;-60
2023/03/26 00:40:35;;;;;;;36.60;9.27;;;6.40;99.90;;;;;;5067541;28;20473;-61
2023/03/26 00:43:08;;;;;;;34.27;8.70;;;8.80;99.90;;;;;;5068126;28;20481;-60
2023/03/26 00:45:35;;;;;;;44.37;9.97;;;8.80;99.90;;;;;;5054574;28;21025;-60
2023/03/26 00:48:02;;;;;;;30.60;8.93;;;;;;;;;;5068832;28;20902;-60
2023/03/26 00:50:30;;;;;;;27.93;7.80;;;;;;;;;;5072790;28;20473;-60
2023/03/26 00:52:58;;;;;;;47.27;11.67;;;8.80;99.90;;;;;;5069858;28;20883;-60
2023/03/26 00:55:24;;;;;;;31.10;8.17;;;8.80;99.90;;;;;;5069067;28;20469;-60
2023/03/26 00:57:54;;;;;;;25.80;8.87;;;;;;;;;;5071822;28;21077;-61
2023/03/26 01:00:28;;;;;;;21.27;6.47;;;;;;;;;;5074491;28;20553;-60
2023/03/26 01:02:57;;;;;;;48.43;11.97;;;;;;;;;;5059316;28;20638;-60
2023/03/26 01:05:42;;;;;;;30.90;8.10;;;8.70;99.90;;;;;;5071728;28;21115;-60
2023/03/26 01:08:16;;;;;;;31.27;7.60;;;;;;;;;;5067177;28;20689;-60
2023/03/26 01:11:15;;;;;;;56.47;14.10;;;8.80;99.90;;;;;;5064374;28;20493;-60
2023/03/26 01:13:46;;;;;;;32.33;6.77;;;8.80;99.90;;;;;;5067826;28;20497;-60
2023/03/26 01:16:19;;;;;;;26.87;9.20;;;;;;;;;;5060533;28;20594;-60
2023/03/26 01:18:47;;;;;;;44.37;10.80;;;8.90;99.90;;;;;;5084270;28;20488;-60
2023/03/26 01:21:21;;;;;;;28.20;7.30;;;8.90;99.90;;;;;;5054901;28;20589;-60
2023/03/26 01:24:00;;;;;;;43.50;13.37;;;9.00;99.90;;;;;;5064273;28;21021;-60
2023/03/26 01:26:32;;;;;;;35.17;9.40;;;;;;;;;;5054593;28;20510;-60
2023/03/26 01:29:00;;;;;;;42.20;10.87;;;;;;;;;;5071277;28;20485;-60
2023/03/26 01:31:35;;;;;;;33.03;7.10;;;9.30;99.90;;;;;;5067295;28;20546;-60
2023/03/26 01:34:11;;;;;;;22.43;7.30;;;9.40;99.90;;;;;;5069596;28;20531;-60
2023/03/26 01:36:39;;;;;;;35.07;8.90;;;;;;;;;;5070365;28;20542;-60
2023/03/26 01:39:17;;;;;;;37.00;9.43;;;9.50;99.90;;;;;;5070373;28;20670;-60
2023/03/26 01:41:45;;;;;;;38.40;10.97;;;;;;;;;;5055184;28;20486;-60
2023/03/26 01:44:20;;;;;;;34.13;7.10;;;9.40;99.90;;;;;;5076997;28;20486;-60
2023/03/26 01:46:48;;;;;;;73.23;15.53;;;;;;;;;;5053978;28;20484;-60
2023/03/26 01:49:15;;;;;;;43.93;9.10;;;;;;;;;;5084550;28;20478;-60
2023/03/26 01:51:43;;;;;;;49.27;10.83;;;;;;;;;;5062377;28;20912;-60
2023/03/26 01:54:14;;;;;;;32.33;7.60;;;9.10;99.90;;;;;;5054085;28;20482;-60
2023/03/26 01:56:49;;;;;;;45.97;11.27;;;9.10;99.90;;;;;;5047717;28;21175;-60
2023/03/26 01:59:31;;;;;;;41.33;9.00;;;9.00;99.90;;;;;;5054348;28;20873;-60
2023/03/26 02:02:03;;;;;;;56.80;12.67;;;9.00;99.90;;;;;;5041953;28;21112;-60
2023/03/26 02:04:39;;;;;;;50.60;8.13;;;8.90;99.90;;;;;;5082075;27;21137;-60
2023/03/26 02:07:09;;;;;;;43.57;9.30;;;;;;;;;;5060683;28;20564;-60
2023/03/26 02:09:44;;;;;;;49.43;11.07;;;8.80;99.90;;;;;;5074433;28;21050;-60
2023/03/26 02:12:11;;;;;;;47.23;10.00;;;8.80;99.90;;;;;;5030325;28;20477;-60
2023/03/26 02:14:38;;;;;;;48.20;9.03;;;8.90;99.90;;;;;;5083378;28;20478;-60
2023/03/26 02:17:08;;;;;;;35.10;10.17;;;9.00;99.90;;;;;;5063969;28;21033;-60
2023/03/26 02:19:35;;;;;;;40.10;10.00;;;9.00;99.90;;;;;;5040368;28;20563;-60
2023/03/26 02:22:02;;;;;;;36.77;9.87;;;9.00;99.90;;;;;;5066612;28;20486;-60
2023/03/26 02:24:28;;;;;;;46.70;8.30;;;9.00;99.90;;;;;;5067225;28;22008;-60
2023/03/26 02:27:01;;;;;;;73.10;14.27;;;9.10;99.90;;;;;;5068889;28;20478;-60
2023/03/26 02:29:28;;;;;;;55.70;9.83;;;;;;;;;;5072436;28;20482;-60
2023/03/26 02:31:55;;;;;;;72.23;13.87;;;;;;;;;;5065584;28;21015;-60
2023/03/26 02:34:22;;;;;;;63.47;9.60;;;;;;;;;;5061471;28;20470;-60
2023/03/26 02:36:49;;;;;;;59.60;13.60;;;;;;;;;;5076246;28;20510;-60
2023/03/26 02:39:16;;;;;;;43.10;10.30;;;;;;;;;;5066897;28;20581;-60
2023/03/26 02:41:43;;;;;;;40.13;8.03;;;;;;;;;;5063040;28;20473;-60
2023/03/26 02:44:11;;;;;;;35.93;7.93;;;9.40;99.90;;;;;;5065617;28;20551;-60
2023/03/26 02:46:38;;;;;;;27.60;7.47;;;9.50;99.90;;;;;;5066046;28;20715;-60
2023/03/26 02:49:05;;;;;;;26.33;7.23;;;9.60;99.90;;;;;;5057856;28;20494;-60
2023/03/26 02:51:33;;;;;;;33.20;9.00;;;9.60;99.90;;;;;;5071882;28;20771;-60
2023/03/26 02:54:00;;;;;;;26.23;8.40;;;9.70;99.90;;;;;;5047634;28;20483;-60
2023/03/26 02:56:27;;;;;;;30.10;6.07;;;9.70;99.90;;;;;;5078317;28;20487;-60
2023/03/26 02:58:54;;;;;;;35.47;11.60;;;9.70;99.90;;;;;;5068084;28;20474;-60
2023/03/26 03:01:22;;;;;;;22.27;6.97;;;9.70;99.90;;;;;;5050452;28;20470;-60
2023/03/26 03:03:49;;;;;;;29.03;7.30;;;9.70;99.90;;;;;;5072972;28;20990;-60
2023/03/26 03:06:17;;;;;;;19.23;5.80;;;;;;;;;;5062169;28;20485;-60
2023/03/26 03:08:45;;;;;;;27.43;8.57;;;9.50;99.90;;;;;;5065947;28;20494;-60
2023/03/26 03:11:14;;;;;;;34.10;6.07;;;9.40;99.90;;;;;;5063971;28;20493;-60
2023/03/26 03:13:41;;;;;;;17.03;6.90;;;9.40;99.90;;;;;;5054160;28;20512;-60
2023/03/26 03:16:08;;;;;;;24.17;8.57;;;9.50;99.90;;;;;;5078858;28;20475;-60
2023/03/26 03:18:37;;;;;;;34.33;8.17;;;9.50;99.90;;;;;;5064526;28;20534;-60
2023/03/26 03:21:04;;;;;;;20.17;5.73;;;9.50;99.90;;;;;;5064971;28;20817;-60
2023/03/26 03:23:31;;;;;;;28.73;6.97;;;9.60;99.90;;;;;;5063563;28;20469;-60
2023/03/26 03:25:58;;;;;;;36.27;8.50;;;12.40;99.90;;;;;;5077493;28;20489;-60
2023/03/26 03:28:25;;;;;;;25.53;8.20;;;9.60;99.90;;;;;;5090337;28;20504;-59
2023/03/26 03:30:52;;;;;;;28.03;8.90;;;;;;;;;;5090644;28;20477;-60
2023/03/26 03:33:19;;;;;;;27.07;6.67;;;9.50;99.90;;;;;;5073107;28;20632;-60
2023/03/26 03:35:48;;;;;;;41.50;11.37;;;9.40;99.90;;;;;;5066324;28;20968;-60
2023/03/26 03:38:15;;;;;;;29.07;6.30;;;;;;;;;;5071831;28;21531;-60
2023/03/26 03:40:42;;;;;;;34.43;5.97;;;9.30;99.90;;;;;;5083139;28;20864;-59
2023/03/26 03:43:08;;;;;;;23.30;5.50;;;9.40;99.90;;;;;;5080592;28;20885;-60
2023/03/26 03:45:35;;;;;;;25.40;7.17;;;9.40;99.90;;;;;;5076384;28;20947;-60
2023/03/26 03:48:02;;;;;;;26.57;7.20;;;9.40;99.90;;;;;;5067911;28;20485;-60
2023/03/26 03:50:30;;;;;;;21.63;6.00;;;;;;;;;;5071215;28;20484;-60
2023/03/26 03:52:59;;;;;;;31.03;8.77;;;;;;;;;;5086206;28;20478;-60
2023/03/26 03:55:27;;;;;;;20.63;5.70;;;9.50;99.90;;;;;;5073104;28;20477;-60
2023/03/26 03:57:55;;;;;;;36.97;11.40;;;9.50;99.90;;;;;;5067748;28;20560;-60
2023/03/26 04:00:23;;;;;;;23.13;4.60;;;;;;;;;;5059732;28;20562;-60
2023/03/26 04:02:53;;;;;;;40.23;10.80;;;10.10;99.90;;;;;;5070518;28;20489;-60
2023/03/26 04:05:20;;;;;;;23.63;5.93;;;13.00;99.90;;;;;;5081476;28;20482;-60
2023/03/26 04:07:47;;;;;;;27.53;7.93;;;9.30;99.90;;;;;;5095705;28;20481;-60
2023/03/26 04:10:16;;;;;;;27.63;7.20;;;;;;;;;;5062773;28;21075;-60
2023/03/26 04:12:43;;;;;;;35.60;9.77;;;9.40;99.90;;;;;;5060215;28;20485;-60
2023/03/26 04:15:10;;;;;;;40.50;8.10;;;9.30;99.90;;;;;;5073821;27;20482;-60
2023/03/26 04:17:41;;;;;;;29.80;6.20;;;9.00;99.90;;;;;;5062912;28;20485;-60
2023/03/26 04:20:08;;;;;;;31.33;7.70;;;;;;;;;;5094528;28;20477;-60
2023/03/26 04:22:35;;;;;;;20.83;5.60;;;8.70;99.90;;;;;;5087387;28;20490;-60
2023/03/26 04:25:04;;;;;;;34.00;9.20;;;8.80;99.90;;;;;;5059387;28;21037;-60
2023/03/26 04:27:34;;;;;;;32.30;7.70;;;8.80;99.90;;;;;;5053290;28;20485;-59
2023/03/26 04:30:01;;;;;;;28.60;6.57;;;;;;;;;;5085921;28;20474;-60
2023/03/26 04:32:32;;;;;;;28.87;6.23;;;;;;;;;;5091692;28;21014;-60
2023/03/26 04:35:02;;;;;;;33.80;9.70;;;9.00;99.90;;;;;;5075270;28;20482;-60
2023/03/26 04:37:33;;;;;;;20.27;5.43;;;;;;;;;;5078383;28;20481;-60
2023/03/26 04:40:01;;;;;;;26.60;8.10;;;8.90;99.90;;;;;;5074528;28;21001;-60
2023/03/26 04:42:28;;;;;;;33.80;5.70;;;9.00;99.90;;;;;;5091633;28;20480;-60
2023/03/26 04:44:58;;;;;;;35.87;11.00;;;;;;;;;;5060587;28;20569;-60
2023/03/26 04:47:25;;;;;;;25.70;7.43;;;;;;;;;;5088732;28;20499;-60
2023/03/26 04:49:52;;;;;;;48.83;8.83;;;;;;;;;;5086739;28;20824;-60
2023/03/26 04:52:19;;;;;;;33.00;8.80;;;9.10;99.90;;;;;;5057121;28;20494;-60
2023/03/26 04:54:46;;;;;;;32.47;10.77;;;9.00;99.90;;;;;;5060926;28;20517;-60
2023/03/26 04:57:16;;;;;;;40.87;7.70;;;;;;;;;;5076414;28;20586;-60
2023/03/26 04:59:42;;;;;;;34.80;10.90;;;9.10;99.90;;;;;;5066530;28;20839;-59
2023/03/26 05:02:12;;;;;;;29.27;7.30;;;;;;;;;;5072676;28;20803;-60
2023/03/26 05:04:40;;;;;;;31.73;7.27;;;;;;;;;;5077741;28;20487;-60
2023/03/26 05:07:08;;;;;;;23.80;6.80;;;7.30;99.90;;;;;;5070842;28;20527;-60
2023/03/26 05:09:35;;;;;;;22.03;7.03;;;;;;;;;;5064363;28;20893;-60
2023/03/26 05:12:02;;;;;;;31.63;7.33;;;;;;;;;;5076125;28;20513;-60
2023/03/26 05:14:29;;;;;;;36.77;11.03;;;9.00;99.90;;;;;;5059034;28;20843;-60
2023/03/26 05:16:56;;;;;;;37.97;9.90;;;9.00;99.90;;;;;;5077726;28;20486;-60
2023/03/26 05:19:24;;;;;;;26.70;5.97;;;;;;;;;;5065522;28;20478;-60
2023/03/26 05:21:51;;;;;;;39.37;11.47;;;9.20;99.90;;;;;;5062489;28;20477;-60
2023/03/26 05:24:18;;;;;;;27.57;7.77;;;9.20;99.90;;;;;;5073114;28;20823;-60
2023/03/26 05:26:45;;;;;;;36.97;8.37;;;9.10;99.90;;;;;;5051665;28;20493;-60
2023/03/26 05:29:12;;;;;;;26.77;6.33;;;9.10;99.90;;;;;;5064779;28;20482;-60
2023/03/26 05:31:39;;;;;;;30.50;8.40;;;9.10;99.90;;;;;;5074357;28;20663;-60
2023/03/26 05:34:06;;;;;;;33.97;6.50;;;9.10;99.90;;;;;;5065728;28;20985;-59
2023/03/26 05:36:34;;;;;;;42.63;8.83;;;9.00;99.90;;;;;;5085132;28;20616;-60
2023/03/26 05:39:01;;;;;;;39.27;8.00;;;9.00;99.90;;;;;;5064739;28;20886;-60
2023/03/26 05:41:27;;;;;;;58.77;8.80;;;8.90;99.90;;;;;;5066675;28;20482;-60
2023/03/26 05:43:54;;;;;;;47.03;9.93;;;;;;;;;;5077976;28;20489;-60
2023/03/26 05:46:22;;;;;;;32.27;9.13;;;;;;;;;;5074610;28;20482;-60
2023/03/26 05:48:50;;;;;;;52.87;11.10;;;;;;;;;;5069960;28;20484;-60
2023/03/26 05:51:17;;;;;;;35.47;6.70;;;8.70;99.90;;;;;;5060537;28;20478;-60
2023/03/26 05:53:46;;;;;;;41.60;8.40;;;;;;;;;;5068374;28;20481;-60
2023/03/26 05:56:13;;;;;;;30.47;6.60;;;;;;;;;;5059618;28;21019;-60
2023/03/26 05:58:40;;;;;;;51.47;9.27;;;;;;;;;;5088411;28;20540;-60
2023/03/26 06:01:08;;;;;;;33.83;7.77;;;;;;;;;;5065426;28;20477;-60
2023/03/26 06:03:36;;;;;;;36.20;8.20;;;;;;;;;;5081556;28;20998;-60
2023/03/26 06:06:07;;;;;;;42.33;8.47;;;8.60;99.90;;;;;;5073271;28;20876;-60
2023/03/26 06:08:33;;;;;;;38.70;6.13;;;8.50;99.90;;;;;;5057703;28;20997;-60
2023/03/26 06:11:03;;;;;;;38.97;8.80;;;8.50;99.90;;;;;;5089208;28;20872;-60
2023/03/26 06:13:30;;;;;;;34.23;8.13;;;8.40;99.90;;;;;;5060822;28;20486;-60
2023/03/26 06:15:57;;;;;;;40.33;10.13;;;;;;;;;;5070403;28;20477;-59
2023/03/26 06:18:25;;;;;;;31.73;6.20;;;;;;;;;;5064588;28;20572;-59
2023/03/26 06:20:52;;;;;;;44.67;9.90;;;;;;;;;;5069664;28;20481;-60
2023/03/26 06:23:19;;;;;;;29.80;6.50;;;8.50;99.90;;;;;;5075145;28;20477;-60
2023/03/26 06:25:46;;;;;;;28.07;8.13;;;8.60;99.90;;;;;;5067620;28;20501;-60
2023/03/26 06:28:15;;;;;;;29.93;6.10;;;8.70;99.90;;;;;;5075963;28;20485;-60
2023/03/26 06:30:42;;;;;;;21.70;5.53;;;8.70;99.90;;;;;;5083601;28;20494;-60
2023/03/26 06:33:09;;;;;;;19.93;5.93;;;8.70;99.90;;;;;;5069404;28;20498;-60
2023/03/26 06:35:36;;;;;;;29.60;6.43;;;8.80;99.90;;;;;;5073803;28;20569;-60
2023/03/26 06:38:04;;;;;;;17.73;5.57;;;8.70;99.90;;;;;;5076298;28;20527;-59
2023/03/26 06:40:30;;;;;;;26.77;7.77;;;8.70;99.90;;;;;;5063288;28;20518;-60
2023/03/26 06:42:59;;;;;;;36.97;10.77;;;;;;;;;;5071945;28;20474;-60
2023/03/26 06:45:27;;;;;;;25.13;5.50;;;8.70;99.90;;;;;;5073357;28;20575;-60
2023/03/26 06:47:54;;;;;;;35.23;9.23;;;8.70;99.90;;;;;;5074159;28;20511;-60
2023/03/26 06:50:21;;;;;;;31.43;7.53;;;;;;;;;;5073156;28;20478;-60
2023/03/26 06:52:49;;;;;;;50.23;10.83;;;;;;;;;;5071659;28;20474;-60
2023/03/26 06:55:16;;;;;;;32.43;7.27;;;;;;;;;;5077838;28;20772;-59
2023/03/26 06:57:44;;;;;;;59.03;9.87;;;9.00;99.90;;;;;;5090303;28;20978;-60
2023/03/26 07:00:12;;;;;;;38.70;7.03;;;;;;;;;;5088035;28;20555;-60
2023/03/26 07:02:40;;;;;;;49.00;8.83;;;;;;;;;;5067535;28;20685;-60
2023/03/26 07:05:08;;;;;;;46.67;8.10;;;;;;;;;;5075326;28;20868;-60
2023/03/26 07:07:34;;;;;;;47.00;9.23;;;8.80;99.90;;;;;;5082013;28;20861;-60
2023/03/26 07:10:01;;;;;;;23.07;5.73;;;8.60;99.90;;;;;;5063350;28;20787;-60
2023/03/26 07:12:28;;;;;;;33.77;10.90;;;8.80;99.90;;;;;;5074849;28;20645;-60
2023/03/26 07:14:55;;;;;;;37.60;9.17;;;8.80;99.90;;;;;;5076162;28;20490;-60
2023/03/26 07:17:22;;;;;;;22.53;5.50;;;;;;;;;;5073595;27;20482;-61
2023/03/26 07:19:51;;;;;;;53.97;10.73;;;8.80;99.90;;;;;;5058312;28;20516;-61
2023/03/26 07:22:21;;;;;;;26.73;7.53;;;8.90;99.90;;;;;;5068478;28;20488;-60
2023/03/26 07:24:49;;;;;;;41.30;10.80;;;8.90;99.90;;;;;;5070975;28;20475;-60
2023/03/26 07:27:23;;;;;;;34.40;8.17;;;;;;;;;;5049044;28;20512;-61
2023/03/26 07:29:56;;;;;;;65.63;15.10;;;;;;;;;;5084065;28;20477;-60
2023/03/26 07:32:29;;;;;;;25.13;5.93;;;8.90;99.90;;;;;;5072249;28;20568;-61
2023/03/26 07:35:06;;;;;;;32.53;7.83;;;9.20;99.90;;;;;;5071629;28;20504;-60
2023/03/26 07:37:42;;;;;;;31.47;7.20;;;9.20;99.90;;;;;;5047138;28;20509;-60
2023/03/26 07:40:19;;;;;;;23.43;7.00;;;9.20;99.90;;;;;;5077811;28;20481;-61
2023/03/26 07:43:01;;;;;;;34.60;10.47;;;9.20;99.90;;;;;;5068954;28;20481;-61
2023/03/26 07:45:32;;;;;;;33.43;7.90;;;;;;;;;;5062911;28;20791;-61
2023/03/26 07:47:59;;;;;;;20.83;6.50;;;9.30;99.90;;;;;;5088649;28;20481;-60
2023/03/26 07:50:28;;;;;;;27.93;6.53;;;9.20;99.90;;;;;;5064730;28;21055;-61
2023/03/26 07:52:55;;;;;;;31.53;9.30;;;9.10;99.90;;;;;;5072129;28;21009;-60
2023/03/26 07:55:22;;;;;;;25.23;6.10;;;9.30;99.90;;;;;;5072148;28;21067;-61
2023/03/26 07:58:00;;;;;;;42.63;5.77;;;9.40;99.90;;;;;;5077377;28;20478;-60
2023/03/26 08:00:31;;;;;;;24.10;7.50;;;;;;;;;;5096624;28;20477;-60
2023/03/26 08:03:25;;;;;;;33.37;10.03;;;9.70;99.90;;;;;;5072894;28;20730;-60
2023/03/26 08:06:01;;;;;;;31.93;9.03;;;10.10;99.90;;;;;;5053994;28;21079;-60
2023/03/26 08:08:35;;;;;;;32.93;8.47;;;10.20;99.90;;;;;;5072535;28;20482;-60
2023/03/26 08:11:11;;;;;;;19.70;6.57;;;10.50;99.90;;;;;;5069834;28;20725;-60
2023/03/26 08:13:51;;;;;;;30.63;5.97;;;10.60;99.90;;;;;;5064032;28;20481;-61
2023/03/26 08:16:23;;;;;;;15.23;5.10;;;10.80;99.90;;;;;;5076611;27;20477;-61
2023/03/26 08:18:56;;;;;;;30.83;9.40;;;10.90;99.90;;;;;;5063787;28;20978;-61
2023/03/26 08:21:26;;;;;;;17.77;5.13;;;;;;;;;;5070460;28;21023;-61
2023/03/26 08:24:04;;;;;;;35.47;11.33;;;11.00;99.90;;;;;;5071366;28;20832;-61
2023/03/26 08:26:40;;;;;;;22.93;4.50;;;11.00;99.90;;;;;;5084204;28;20486;-61
2023/03/26 08:29:17;;;;;;;24.43;6.87;;;11.20;99.90;;;;;;5072244;28;20912;-60
2023/03/26 08:31:45;;;;;;;25.53;6.57;;;11.00;99.90;;;;;;5070511;28;20877;-61
2023/03/26 08:34:13;;;;;;;22.30;5.87;;;11.10;99.90;;;;;;5072011;28;20854;-61
2023/03/26 08:36:42;;;;;;;50.10;7.70;;;;;;;;;;5076487;28;20929;-60
2023/03/26 08:39:09;;;;;;;38.83;7.37;;;;;;;;;;5076866;28;20549;-60
2023/03/26 08:42:08;;;;;;;41.07;8.50;;;11.60;99.90;;;;;;5071405;28;20494;-60
2023/03/26 08:44:54;;;;;;;28.60;7.17;;;;;;;;;;5061695;28;20764;-61
2023/03/26 08:47:36;;;;;;;21.30;4.90;;;;;;;;;;5067179;28;20465;-60
2023/03/26 08:50:14;;;;;;;41.23;10.13;;;;;;;;;;5072044;28;20500;-61
2023/03/26 08:53:10;;;;;;;32.20;7.80;;;11.40;99.90;;;;;;5070071;28;20987;-62
2023/03/26 08:55:44;;;;;;;28.27;7.67;;;11.40;99.90;;;;;;5083826;28;20478;-61
2023/03/26 08:58:27;;;;;;;23.73;6.00;;;;;;;;;;5076819;28;20479;-61
2023/03/26 09:01:04;;;;;;;33.23;6.80;;;;;;;;;;5059957;28;20547;-61
2023/03/26 09:03:58;;;;;;;15.73;5.70;;;11.80;99.90;;;;;;5061718;28;20559;-61
2023/03/26 09:06:35;;;;;;;21.37;6.13;;;;;;;;;;5075281;28;20470;-61
2023/03/26 09:09:46;;;;;;;28.83;6.20;;;12.00;99.90;;;;;;5060879;28;20512;-61
2023/03/26 09:13:14;;;;;;;32.07;7.00;;;12.20;99.90;;;;;;5077085;28;20473;-61
2023/03/26 09:16:25;;;;;;;26.27;6.13;;;12.40;99.90;;;;;;5070150;28;20506;-61
2023/03/26 09:19:33;;;;;;;36.20;9.83;;;12.40;99.90;;;;;;5074236;28;20482;-60
2023/03/26 09:22:30;;;;;;;29.40;7.07;;;12.30;99.90;;;;;;5074816;28;20541;-61
2023/03/26 09:25:29;;;;;;;27.40;8.87;;;12.00;99.90;;;;;;5067235;28;20785;-60
2023/03/26 09:28:10;;;;;;;24.73;8.67;;;;;;;;;;5060926;28;20460;-61
2023/03/26 09:30:48;;;;;;;24.20;5.90;;;;;;;;;;5063443;28;20820;-61
2023/03/26 09:33:30;;;;;;;16.23;4.20;;;;;;;;;;5070595;28;20842;-61
2023/03/26 09:36:12;;;;;;;24.67;7.63;;;;;;;;;;5049355;28;20474;-60
2023/03/26 09:38:51;;;;;;;28.63;5.17;;;11.10;99.90;;;;;;5074532;28;20493;-61
2023/03/26 09:41:32;;;;;;;12.90;4.23;;;11.10;99.90;;;;;;5080211;28;20477;-61
2023/03/26 09:44:32;;;;;;;25.70;5.60;;;10.40;99.90;;;;;;5062683;28;20986;-60
2023/03/26 09:47:35;;;;;;;18.40;6.50;;;11.80;99.90;;;;;;5073104;28;20835;-60
2023/03/26 09:50:24;;;;;;;17.20;5.17;;;12.20;99.90;;;;;;5068078;28;20470;-60
2023/03/26 09:53:10;;;;;;;30.23;9.10;;;12.60;99.90;;;;;;5070892;28;20491;-61
2023/03/26 09:55:50;;;;;;;27.03;6.87;;;12.80;98.50;;;;;;5058557;28;20982;-61
2023/03/26 09:59:10;;;;;;;18.40;4.83;;;12.70;97.20;;;;;;5055601;28;20465;-60
2023/03/26 10:01:44;;;;;;;31.33;5.93;;;12.80;96.90;;;;;;5017762;28;20480;-60
2023/03/26 10:04:37;;;;;;;26.77;5.00;;;12.80;96.40;;;;;;5062232;28;20482;-61
2023/03/26 10:07:07;;;;;;;25.07;5.30;;;;;;;;;;5066773;28;20980;-60
2023/03/26 10:09:40;;;;;;;24.27;6.07;;;12.80;96.50;;;;;;5070587;28;20896;-61
2023/03/26 10:12:24;;;;;;;16.37;5.80;;;12.80;95.70;;;;;;5065511;28;20821;-61
2023/03/26 10:15:03;;;;;;;22.87;6.63;;;12.70;95.60;;;;;;5076902;28;20470;-61
2023/03/26 10:17:41;;;;;;;35.13;5.10;;;12.70;94.70;;;;;;5058549;28;20473;-60
2023/03/26 10:20:26;;;;;;;20.90;5.40;;;12.70;95.30;;;;;;5088067;28;20531;-61
2023/03/26 10:22:57;;;;;;;23.37;7.40;;;;;;;;;;5072722;28;20482;-60
2023/03/26 10:25:42;;;;;;;21.37;4.53;;;12.70;95.10;;;;;;5057020;28;20493;-60
2023/03/26 10:28:24;;;;;;;31.00;5.50;;;12.80;95.70;;;;;;5066353;28;20474;-60
2023/03/26 10:30:59;;;;;;;54.47;11.63;;;;;;;;;;5062654;28;21472;-60
2023/03/26 10:33:35;;;;;;;20.70;4.37;;;13.10;95.60;;;;;;5083941;28;20546;-61
2023/03/26 10:36:30;;;;;;;30.57;6.90;;;13.30;95.80;;;;;;5058049;28;20481;-60
2023/03/26 10:39:23;;;;;;;37.23;7.13;;;13.50;95.70;;;;;;5020629;28;20494;-61
2023/03/26 10:42:00;;;;;;;41.47;10.00;;;13.60;95.00;;;;;;5082084;28;20481;-61
2023/03/26 10:44:43;;;;;;;15.37;4.17;;;13.40;93.90;;;;;;5053465;28;20484;-61
2023/03/26 10:47:34;;;;;;;26.13;6.00;;;13.40;94.70;;;;;;5063232;28;21003;-60
2023/03/26 10:50:34;;;;;;;40.57;7.03;;;13.40;94.30;;;;;;5055375;28;21176;-61
2023/03/26 10:53:04;;;;;;;27.27;5.63;;;12.00;94.00;;;;;;5070136;28;20501;-61
2023/03/26 10:55:36;;;;;;;32.23;7.17;;;13.20;94.10;;;;;;5076952;28;20467;-61
2023/03/26 10:58:13;;;;;;;36.33;7.10;;;13.20;94.10;;;;;;5052661;27;20571;-61
2023/03/26 11:00:45;;;;;;;40.13;8.80;;;13.40;94.30;;;;;;5073421;27;20474;-61
2023/03/26 11:03:43;;;;;;;26.83;5.37;;;13.50;94.30;;;;;;5075711;28;20478;-60
2023/03/26 11:06:24;;;;;;;25.80;5.53;;;13.70;94.60;;;;;;5068129;28;20485;-61
2023/03/26 11:08:57;;;;;;;60.57;12.03;;;13.60;93.90;;;;;;5074092;28;20478;-61
2023/03/26 11:11:30;;;;;;;28.57;6.93;;;13.40;93.00;;;;;;5075659;28;20486;-60
2023/03/26 11:14:05;;;;;;;32.47;8.43;;;13.60;93.90;;;;;;5071421;28;20478;-60
2023/03/26 11:16:44;;;;;;;21.40;5.80;;;13.60;93.50;;;;;;5060089;28;20516;-61
2023/03/26 11:19:19;;;;;;;15.50;6.10;;;13.40;93.30;;;;;;5090616;28;20481;-61
2023/03/26 11:21:54;;;;;;;17.73;5.60;;;13.20;92.30;;;;;;5089650;28;20527;-61
2023/03/26 11:24:53;;;;;;;11.23;4.63;;;13.30;94.50;;;;;;5062771;28;20867;-61
2023/03/26 11:27:32;;;;;;;10.80;4.33;;;13.40;94.00;;;;;;5080423;28;20470;-61
2023/03/26 11:30:11;;;;;;;22.57;6.43;;;12.40;93.20;;;;;;5073859;28;20888;-61
2023/03/26 11:32:41;;;;;;;15.83;4.93;;;;;;;;;;5086968;27;20480;-61
2023/03/26 11:35:17;;;;;;;33.83;4.37;;;13.60;91.70;;;;;;5073602;28;20708;-61
2023/03/26 11:37:47;;;;;;;23.30;7.23;;;13.80;92.40;;;;;;5067360;28;20938;-61
2023/03/26 11:40:20;;;;;;;18.20;5.17;;;14.00;92.50;;;;;;5071138;27;20534;-61
2023/03/26 11:42:47;;;;;;;23.20;8.80;;;14.20;92.90;;;;;;5071087;28;21020;-61
2023/03/26 11:45:18;;;;;;;11.80;4.00;;;14.30;91.50;;;;;;5071630;27;20558;-61
2023/03/26 11:47:50;;;;;;;14.13;6.53;;;14.40;92.00;;;;;;5090346;28;21021;-61
2023/03/26 11:50:23;;;;;;;13.33;4.40;;;14.50;92.30;;;;;;5078171;27;20470;-61
2023/03/26 11:52:57;;;;;;;25.83;10.50;;;14.50;92.70;;;;;;5076158;28;20878;-61
2023/03/26 11:55:26;;;;;;;12.03;4.10;;;14.70;92.70;;;;;;5072555;28;20837;-61
2023/03/26 11:57:58;;;;;;;27.87;10.00;;;14.90;91.30;;;;;;5086387;28;21017;-61
2023/03/26 12:00:26;;;;;;;17.87;4.37;;;14.50;91.40;;;;;;5065351;28;20485;-61
2023/03/26 12:02:57;;;;;;;36.97;10.97;;;14.40;91.10;;;;;;5070399;28;20474;-61
2023/03/26 12:05:30;;;;;;;12.37;4.20;;;14.30;91.40;;;;;;5048586;28;20469;-61
2023/03/26 12:07:58;;;;;;;25.33;8.83;;;14.10;91.10;;;;;;5066213;28;20481;-61
2023/03/26 12:10:31;;;;;;;18.90;6.83;;;;;;;;;;5066364;28;20497;-61
2023/03/26 12:13:01;;;;;;;43.40;8.70;;;13.80;91.00;;;;;;5069320;28;20554;-60
2023/03/26 12:15:29;;;;;;;13.90;4.70;;;13.90;91.10;;;;;;5074854;28;20536;-61
2023/03/26 12:17:58;;;;;;;40.67;12.30;;;14.10;91.90;;;;;;5058121;28;20846;-61
2023/03/26 12:20:37;;;;;;;27.03;6.00;;;14.20;91.90;;;;;;5073524;28;20489;-61
2023/03/26 12:23:05;;;;;;;22.90;6.50;;;14.10;91.20;;;;;;5064338;28;20482;-61
2023/03/26 12:25:33;;;;;;;33.07;8.90;;;14.10;91.60;;;;;;5065848;28;21056;-61
2023/03/26 12:28:02;;;;;;;41.20;9.73;;;14.00;91.80;;;;;;5062221;28;20490;-60
2023/03/26 12:30:32;;;;;;;30.73;7.50;;;13.80;92.10;;;;;;5063211;28;20504;-61
2023/03/26 12:33:02;;;;;;;30.23;7.53;;;13.70;92.20;;;;;;5055376;28;20478;-61
2023/03/26 12:35:33;;;;;;;22.83;6.60;;;13.80;92.10;;;;;;5063199;28;20563;-60
2023/03/26 12:38:23;;;;;;;40.67;9.40;;;13.50;92.20;;;;;;5067379;28;21033;-61
2023/03/26 12:41:04;;;;;;;54.30;11.67;;;13.20;92.30;;;;;;5055220;28;20478;-61
2023/03/26 12:43:38;;;;;;;14.20;5.23;;;13.10;93.10;;;;;;5060243;28;20482;-60
2023/03/26 12:46:23;;;;;;;15.93;5.10;;;13.10;93.50;;;;;;5073041;28;21005;-61
2023/03/26 12:48:51;;;;;;;27.77;9.33;;;13.00;94.20;;;;;;5066766;28;20476;-61
2023/03/26 12:51:30;;;;;;;12.50;5.70;;;12.80;92.70;;;;;;5069793;28;20564;-61
2023/03/26 12:54:22;;;;;;;24.03;7.40;;;12.20;94.30;;;;;;5052490;28;20478;-61
2023/03/26 12:56:58;;;;;;;26.33;9.07;;;11.70;94.10;;;;;;5049948;28;20552;-60
2023/03/26 12:59:49;;;;;;;19.60;5.90;;;11.50;95.30;;;;;;5044702;28;20476;-61
2023/03/26 13:02:43;;;;;;;31.77;5.80;;;11.30;94.60;;;;;;5079599;28;20865;-61
2023/03/26 13:05:28;;;;;;;22.37;8.50;;;11.20;94.60;;;;;;5060302;28;20470;-61
2023/03/26 13:08:11;;;;;;;23.77;9.27;;;11.20;95.00;;;;;;5066184;28;20485;-61
2023/03/26 13:10:49;;;;;;;45.47;14.30;;;11.20;94.90;;;;;;5070054;28;20579;-61
2023/03/26 13:13:38;;;;;;;17.50;6.77;;;11.10;94.50;;;;;;5068417;28;20486;-61
2023/03/26 13:16:10;;;;;;;21.97;7.00;;;11.10;94.50;;;;;;5069568;28;20558;-60
2023/03/26 13:18:47;;;;;;;14.93;6.30;;;11.00;94.70;;;;;;5066876;28;20520;-60
2023/03/26 13:21:23;;;;;;;8.80;3.20;;;10.90;95.90;;;;;;5036816;28;20484;-61
2023/03/26 13:23:58;;;;;;;22.80;8.80;;;10.70;96.70;;;;;;5044301;28;21326;-60
2023/03/26 13:26:45;;;;;;;20.80;5.67;;;10.50;96.10;;;;;;5045565;28;20920;-61
2023/03/26 13:29:18;;;;;;;16.53;5.50;;;10.40;96.10;;;;;;5059931;28;20475;-60
2023/03/26 13:31:51;;;;;;;21.90;7.57;;;10.20;96.50;;;;;;5082465;28;20501;-60
2023/03/26 13:34:26;;;;;;;8.57;4.53;;;10.10;96.30;;;;;;5047755;28;20481;-61
2023/03/26 13:37:06;;;;;;;13.83;7.43;;;9.90;97.90;;;;;;5072790;28;20494;-61
2023/03/26 13:39:45;;;;;;;9.50;5.73;;;9.80;97.50;;;;;;5067134;28;20478;-61